Time,TemperatureF,DewpointF,PressureIn,WindDirection,WindDirectionDegrees,WindSpeedMPH,WindSpeedGustMPH,Humidity,HourlyPrecipIn,Conditions,Clouds,dailyrainin,SoftwareType,DateUTC
2013-01-24 00:03:00,9.0,-1.0,30.37,NNE,15,6.0,18.0,62,0.00,,,0.00,,2013-01-24 05:03:00,
2013-01-24 00:12:00,9.0,-1.0,30.37,NNE,15,6.0,18.0,62,0.00,,,0.00,,2013-01-24 05:12:00,
2013-01-24 00:22:00,9.0,-1.0,30.37,NNE,16,8.0,16.0,63,0.00,,,0.00,,2013-01-24 05:22:00,
2013-01-24 00:33:00,9.0,0.0,30.39,North,360,8.0,17.0,65,0.00,,,0.00,,2013-01-24 05:33:00,
2013-01-24 00:42:00,9.0,0.0,30.39,North,360,8.0,17.0,65,0.00,,,0.00,,2013-01-24 05:42:00,
2013-01-24 00:53:00,9.0,0.0,30.40,NNE,17,8.0,20.0,65,0.00,,,0.00,,2013-01-24 05:53:00,
2013-01-24 01:02:00,9.0,4.0,30.41,NNE,18,11.0,20.0,78,0.00,,,0.00,,2013-01-24 06:02:00,
2013-01-24 01:12:00,9.0,4.0,30.41,NNE,18,11.0,20.0,78,0.00,,,0.00,,2013-01-24 06:12:00,
2013-01-24 01:22:00,9.0,4.0,30.42,NNE,12,8.0,15.0,80,0.00,,,0.00,,2013-01-24 06:22:00,
2013-01-24 01:32:00,8.0,4.0,30.42,NNE,30,9.0,19.0,82,0.00,,,0.00,,2013-01-24 06:32:00,
2013-01-24 01:42:00,8.0,4.0,30.42,NNE,30,9.0,19.0,82,0.00,,,0.00,,2013-01-24 06:42:00,
2013-01-24 01:52:00,9.0,4.0,30.43,North,11,6.0,15.0,81,0.00,,,0.00,,2013-01-24 06:52:00,
2013-01-24 02:02:00,9.0,4.0,30.43,NNE,23,5.0,14.0,80,0.00,,,0.00,,2013-01-24 07:02:00,
2013-01-24 02:12:00,9.0,4.0,30.43,NNE,23,5.0,14.0,80,0.00,,,0.00,,2013-01-24 07:12:00,
2013-01-24 02:23:00,8.0,1.0,30.44,NNE,15,5.0,13.0,74,0.00,,,0.00,,2013-01-24 07:23:00,
2013-01-24 02:33:00,8.0,0.0,30.45,NNW,348,4.0,15.0,68,0.00,,,0.00,,2013-01-24 07:33:00,
2013-01-24 02:42:00,8.0,0.0,30.45,NNW,348,4.0,15.0,68,0.00,,,0.00,,2013-01-24 07:42:00,
2013-01-24 02:53:00,8.0,-1.0,30.46,NNE,31,6.0,17.0,66,0.00,,,0.00,,2013-01-24 07:53:00,
2013-01-24 03:02:00,8.0,-3.0,30.46,North,360,5.0,11.0,60,0.00,,,0.00,,2013-01-24 08:02:00,
2013-01-24 03:12:00,8.0,-3.0,30.46,North,360,5.0,11.0,60,0.00,,,0.00,,2013-01-24 08:12:00,
2013-01-24 03:22:00,8.0,-3.0,30.47,NNE,19,5.0,10.0,60,0.00,,,0.00,,2013-01-24 08:22:00,
2013-01-24 03:33:00,8.0,1.0,30.48,North,5,6.0,16.0,72,0.00,,,0.00,,2013-01-24 08:33:00,
2013-01-24 03:42:00,8.0,1.0,30.48,North,5,6.0,16.0,72,0.00,,,0.00,,2013-01-24 08:42:00,
2013-01-24 03:53:00,8.0,-1.0,30.49,North,360,4.0,15.0,65,0.00,,,0.00,,2013-01-24 08:53:00,
2013-01-24 04:03:00,8.0,0.0,30.49,North,360,4.0,10.0,69,0.00,,,0.00,,2013-01-24 09:03:00,
2013-01-24 04:13:00,8.0,0.0,30.49,North,360,4.0,10.0,69,0.00,,,0.00,,2013-01-24 09:13:00,
2013-01-24 04:23:00,8.0,-1.0,30.50,North,360,6.0,13.0,65,0.00,,,0.00,,2013-01-24 09:23:00,
2013-01-24 04:33:00,8.0,-3.0,30.51,North,350,3.0,8.0,60,0.00,,,0.00,,2013-01-24 09:33:00,
2013-01-24 04:43:00,8.0,-3.0,30.51,North,350,3.0,8.0,60,0.00,,,0.00,,2013-01-24 09:43:00,
2013-01-24 04:53:00,8.0,0.0,30.52,WNW,301,4.0,13.0,70,0.00,,,0.00,,2013-01-24 09:53:00,
2013-01-24 05:02:00,7.0,1.0,30.53,WNW,286,5.0,14.0,75,0.00,,,0.00,,2013-01-24 10:02:00,
2013-01-24 05:12:00,7.0,1.0,30.53,WNW,286,5.0,14.0,75,0.00,,,0.00,,2013-01-24 10:12:00,
2013-01-24 05:23:00,6.0,0.0,30.53,West,269,4.0,11.0,75,0.00,,,0.00,,2013-01-24 10:23:00,
2013-01-24 05:33:00,6.0,0.0,30.53,West,281,5.0,13.0,76,0.00,,,0.00,,2013-01-24 10:33:00,
2013-01-24 05:43:00,6.0,0.0,30.53,West,281,5.0,13.0,76,0.00,,,0.00,,2013-01-24 10:43:00,
2013-01-24 05:53:00,6.0,0.0,30.54,West,265,7.0,15.0,74,0.00,,,0.00,,2013-01-24 10:53:00,
2013-01-24 06:02:00,5.0,-1.0,30.55,WNW,292,6.0,15.0,75,0.00,,,0.00,,2013-01-24 11:02:00,
2013-01-24 06:12:00,5.0,-1.0,30.55,WNW,292,6.0,15.0,75,0.00,,,0.00,,2013-01-24 11:12:00,
2013-01-24 06:23:00,5.0,-1.0,30.55,WSW,248,3.0,14.0,76,0.00,,,0.00,,2013-01-24 11:23:00,
2013-01-24 06:33:00,5.0,-1.0,30.56,WNW,286,3.0,11.0,76,0.00,,,0.00,,2013-01-24 11:33:00,
2013-01-24 06:43:00,5.0,-1.0,30.56,WNW,286,3.0,11.0,76,0.00,,,0.00,,2013-01-24 11:43:00,
2013-01-24 06:53:00,4.0,-2.0,30.57,West,261,5.0,13.0,75,0.00,,,0.00,,2013-01-24 11:53:00,
2013-01-24 07:03:00,4.0,-3.0,30.58,West,275,3.0,14.0,73,0.00,,,0.00,,2013-01-24 12:03:00,
2013-01-24 07:12:00,4.0,-3.0,30.58,West,275,3.0,14.0,73,0.00,,,0.00,,2013-01-24 12:12:00,
2013-01-24 07:22:00,4.0,-4.0,30.58,West,263,4.0,15.0,70,0.00,,,0.00,,2013-01-24 12:22:00,
2013-01-24 07:33:00,3.0,-5.0,30.58,WNW,290,5.0,15.0,69,0.00,,,0.00,,2013-01-24 12:33:00,
2013-01-24 07:43:00,3.0,-5.0,30.58,WNW,290,5.0,15.0,69,0.00,,,0.00,,2013-01-24 12:43:00,
2013-01-24 07:53:00,3.0,-5.0,30.59,West,281,5.0,13.0,69,0.00,,,0.00,,2013-01-24 12:53:00,
2013-01-24 08:03:00,3.0,-5.0,30.59,West,273,4.0,12.0,68,0.00,,,0.00,,2013-01-24 13:03:00,
2013-01-24 08:13:00,3.0,-5.0,30.59,West,273,4.0,12.0,68,0.00,,,0.00,,2013-01-24 13:13:00,
2013-01-24 08:23:00,2.0,-6.0,30.60,West,269,3.0,13.0,68,0.00,,,0.00,,2013-01-24 13:23:00,
2013-01-24 08:33:00,2.0,-6.0,30.60,NW,309,3.0,11.0,67,0.00,,,0.00,,2013-01-24 13:33:00,
2013-01-24 08:43:00,2.0,-6.0,30.60,NW,309,3.0,11.0,67,0.00,,,0.00,,2013-01-24 13:43:00,
2013-01-24 08:53:00,2.0,-7.0,30.61,WSW,246,3.0,11.0,66,0.00,,,0.00,,2013-01-24 13:53:00,
2013-01-24 09:02:00,1.0,-8.0,30.61,West,279,2.0,15.0,65,0.00,,,0.00,,2013-01-24 14:02:00,
2013-01-24 09:12:00,1.0,-8.0,30.61,West,279,2.0,15.0,65,0.00,,,0.00,,2013-01-24 14:12:00,
2013-01-24 09:23:00,1.0,-8.0,30.61,West,279,2.0,15.0,65,0.00,,,0.00,,2013-01-24 14:23:00,
2013-01-24 09:33:00,1.0,-9.0,30.63,West,276,4.0,11.0,63,0.00,,,0.00,,2013-01-24 14:33:00,
2013-01-24 09:43:00,1.0,-9.0,30.63,West,276,4.0,11.0,63,0.00,,,0.00,,2013-01-24 14:43:00,
2013-01-24 09:54:00,3.0,-7.0,30.63,West,261,4.0,9.0,63,0.00,,,0.00,,2013-01-24 14:54:00,
2013-01-24 10:03:00,4.0,-7.0,30.64,West,260,5.0,13.0,60,0.00,,,0.00,,2013-01-24 15:03:00,
2013-01-24 10:12:00,4.0,-7.0,30.64,West,260,5.0,13.0,60,0.00,,,0.00,,2013-01-24 15:12:00,
2013-01-24 10:23:00,4.0,-7.0,30.65,NW,309,6.0,15.0,59,0.00,,,0.00,,2013-01-24 15:23:00,
2013-01-24 10:33:00,4.0,-7.0,30.65,NW,309,6.0,15.0,59,0.00,,,0.00,,2013-01-24 15:33:00,
2013-01-24 10:43:00,5.0,-6.0,30.65,WNW,301,5.0,11.0,59,0.00,,,0.00,,2013-01-24 15:43:00,
2013-01-24 10:53:00,6.0,-6.0,30.65,West,266,3.0,9.0,58,0.00,,,0.00,,2013-01-24 15:53:00,
2013-01-24 11:03:00,6.0,-6.0,30.64,WNW,296,3.0,13.0,57,0.00,,,0.00,,2013-01-24 16:03:00,
2013-01-24 11:12:00,6.0,-6.0,30.64,WNW,296,3.0,13.0,57,0.00,,,0.00,,2013-01-24 16:12:00,
2013-01-24 11:23:00,6.0,-6.0,30.64,WNW,296,3.0,13.0,57,0.00,,,0.00,,2013-01-24 16:23:00,
2013-01-24 11:33:00,7.0,-5.0,30.63,West,268,3.0,10.0,56,0.00,,,0.00,,2013-01-24 16:33:00,
2013-01-24 11:42:00,7.0,-5.0,30.63,West,268,3.0,10.0,56,0.00,,,0.00,,2013-01-24 16:42:00,
2013-01-24 12:02:00,8.0,-4.0,30.63,West,275,2.0,8.0,56,0.00,,,0.00,,2013-01-24 17:02:00,
2013-01-24 12:12:00,8.0,-4.0,30.63,West,275,2.0,8.0,56,0.00,,,0.00,,2013-01-24 17:12:00,
2013-01-24 12:21:00,8.0,-4.0,30.63,West,275,2.0,8.0,56,0.00,,,0.00,,2013-01-24 17:21:00,
2013-01-24 12:32:00,9.0,-3.0,30.63,West,273,1.0,9.0,56,0.00,,,0.00,,2013-01-24 17:32:00,
2013-01-24 12:42:00,9.0,-3.0,30.63,West,273,1.0,9.0,56,0.00,,,0.00,,2013-01-24 17:42:00,
2013-01-24 12:52:00,10.0,-3.0,30.63,West,263,2.0,7.0,54,0.00,,,0.00,,2013-01-24 17:52:00,
2013-01-24 13:02:00,10.0,-3.0,30.62,WSW,249,1.0,8.0,54,0.00,,,0.00,,2013-01-24 18:02:00,
2013-01-24 13:12:00,10.0,-3.0,30.62,WNW,288,1.0,5.0,54,0.00,,,0.00,,2013-01-24 18:12:00,
2013-01-24 13:22:00,10.0,-3.0,30.62,WNW,288,1.0,5.0,54,0.00,,,0.00,,2013-01-24 18:22:00,
2013-01-24 13:33:00,11.0,-2.0,30.61,North,360,0.0,3.0,54,0.00,,,0.00,,2013-01-24 18:33:00,
2013-01-24 13:42:00,11.0,-2.0,30.61,North,360,0.0,3.0,54,0.00,,,0.00,,2013-01-24 18:42:00,
2013-01-24 13:52:00,11.0,-4.0,30.60,NNE,30,0.0,4.0,51,0.00,,,0.00,,2013-01-24 18:52:00,
2013-01-24 14:02:00,11.0,-5.0,30.59,NNW,341,0.0,3.0,48,0.00,,,0.00,,2013-01-24 19:02:00,
2013-01-24 14:12:00,11.0,-5.0,30.59,NNW,341,0.0,3.0,48,0.00,,,0.00,,2013-01-24 19:12:00,
2013-01-24 14:22:00,11.0,-4.0,30.58,West,266,0.0,4.0,49,0.00,,,0.00,,2013-01-24 19:22:00,
2013-01-24 14:33:00,9.0,-5.0,30.58,West,274,0.0,5.0,51,0.00,,,0.00,,2013-01-24 19:33:00,
2013-01-24 14:42:00,9.0,-5.0,30.58,West,274,0.0,5.0,51,0.00,,,0.00,,2013-01-24 19:42:00,
2013-01-24 14:52:00,9.0,-6.0,30.58,WNW,298,1.0,5.0,50,0.00,,,0.00,,2013-01-24 19:52:00,
2013-01-24 15:02:00,9.0,-7.0,30.58,SW,221,1.0,8.0,48,0.00,,,0.00,,2013-01-24 20:02:00,
2013-01-24 15:11:00,9.0,-7.0,30.58,SW,221,1.0,8.0,48,0.00,,,0.00,,2013-01-24 20:11:00,
2013-01-24 15:22:00,10.0,-6.0,30.57,WSW,257,1.0,10.0,47,0.00,,,0.00,,2013-01-24 20:22:00,
2013-01-24 15:32:00,10.0,-6.0,30.58,South,171,1.0,7.0,47,0.00,,,0.00,,2013-01-24 20:32:00,
2013-01-24 15:42:00,10.0,-6.0,30.58,South,171,1.0,7.0,47,0.00,,,0.00,,2013-01-24 20:42:00,
2013-01-24 15:52:00,10.0,-6.0,30.57,West,259,0.0,8.0,47,0.00,,,0.00,,2013-01-24 20:52:00,
2013-01-24 16:02:00,10.0,-6.0,30.57,SW,218,1.0,6.0,47,0.00,,,0.00,,2013-01-24 21:02:00,
2013-01-24 16:12:00,10.0,-6.0,30.57,SW,218,1.0,6.0,47,0.00,,,0.00,,2013-01-24 21:12:00,
2013-01-24 16:22:00,10.0,-6.0,30.56,WSW,254,0.0,6.0,47,0.00,,,0.00,,2013-01-24 21:22:00,
2013-01-24 16:33:00,10.0,-6.0,30.55,WSW,254,0.0,4.0,47,0.00,,,0.00,,2013-01-24 21:33:00,
2013-01-24 16:43:00,10.0,-6.0,30.55,WSW,254,0.0,4.0,47,0.00,,,0.00,,2013-01-24 21:43:00,
2013-01-24 16:52:00,10.0,-5.0,30.56,WSW,254,0.0,1.0,49,0.00,,,0.00,,2013-01-24 21:52:00,
2013-01-24 17:03:00,10.0,-6.0,30.55,WSW,254,0.0,1.0,48,0.00,,,0.00,,2013-01-24 22:03:00,
2013-01-24 17:12:00,10.0,-6.0,30.55,WSW,254,0.0,1.0,48,0.00,,,0.00,,2013-01-24 22:12:00,
2013-01-24 17:22:00,10.0,-5.0,30.55,WSW,254,0.0,1.0,49,0.00,,,0.00,,2013-01-24 22:22:00,
2013-01-24 17:32:00,10.0,-5.0,30.54,WSW,254,0.0,2.0,50,0.00,,,0.00,,2013-01-24 22:32:00,
2013-01-24 17:42:00,10.0,-5.0,30.54,WSW,254,0.0,2.0,50,0.00,,,0.00,,2013-01-24 22:42:00,
2013-01-24 17:52:00,10.0,-5.0,30.54,WSW,254,0.0,1.0,49,0.00,,,0.00,,2013-01-24 22:52:00,
2013-01-24 18:02:00,10.0,-5.0,30.53,WSW,254,0.0,1.0,50,0.00,,,0.00,,2013-01-24 23:02:00,
2013-01-24 18:12:00,10.0,-5.0,30.53,WSW,254,0.0,1.0,50,0.00,,,0.00,,2013-01-24 23:12:00,
2013-01-24 18:22:00,10.0,-5.0,30.52,WSW,254,0.0,2.0,49,0.00,,,0.00,,2013-01-24 23:22:00,
2013-01-24 18:32:00,10.0,-5.0,30.51,WSW,254,0.0,2.0,50,0.00,,,0.00,,2013-01-24 23:32:00,
2013-01-24 18:42:00,10.0,-5.0,30.51,WSW,254,0.0,2.0,50,0.00,,,0.00,,2013-01-24 23:42:00,
2013-01-24 18:52:00,9.0,-6.0,30.51,WSW,254,0.0,4.0,50,0.00,,,0.00,,2013-01-24 23:52:00,
2013-01-24 19:02:00,9.0,-5.0,30.50,WSW,254,0.0,3.0,51,0.00,,,0.00,,2013-01-25 00:02:00,
2013-01-24 19:12:00,9.0,-5.0,30.50,WSW,254,0.0,3.0,51,0.00,,,0.00,,2013-01-25 00:12:00,
2013-01-24 19:22:00,9.0,-5.0,30.50,WSW,254,0.0,1.0,52,0.00,,,0.00,,2013-01-25 00:22:00,
2013-01-24 19:32:00,9.0,-4.0,30.49,WSW,254,0.0,1.0,54,0.00,,,0.00,,2013-01-25 00:32:00,
2013-01-24 19:42:00,9.0,-4.0,30.49,WSW,254,0.0,1.0,54,0.00,,,0.00,,2013-01-25 00:42:00,
2013-01-24 19:52:00,9.0,-4.0,30.49,WSW,254,0.0,2.0,55,0.00,,,0.00,,2013-01-25 00:52:00,
2013-01-24 20:02:00,9.0,-5.0,30.48,WSW,254,0.0,1.0,52,0.00,,,0.00,,2013-01-25 01:02:00,
2013-01-24 20:12:00,9.0,-5.0,30.48,WSW,254,0.0,1.0,52,0.00,,,0.00,,2013-01-25 01:12:00,
2013-01-24 20:22:00,9.0,-5.0,30.48,WSW,247,0.0,3.0,51,0.00,,,0.00,,2013-01-25 01:22:00,
2013-01-24 20:32:00,9.0,-6.0,30.47,WSW,244,0.0,2.0,50,0.00,,,0.00,,2013-01-25 01:32:00,
2013-01-24 20:42:00,9.0,-6.0,30.47,WSW,244,0.0,2.0,50,0.00,,,0.00,,2013-01-25 01:42:00,
2013-01-24 20:52:00,9.0,-6.0,30.47,WSW,244,0.0,2.0,49,0.00,,,0.00,,2013-01-25 01:52:00,
2013-01-24 21:02:00,10.0,-5.0,30.46,South,178,0.0,4.0,50,0.00,,,0.00,,2013-01-25 02:02:00,
2013-01-24 21:11:00,10.0,-5.0,30.46,South,178,0.0,4.0,50,0.00,,,0.00,,2013-01-25 02:11:00,
2013-01-24 21:22:00,10.0,-5.0,30.45,South,171,0.0,4.0,49,0.00,,,0.00,,2013-01-25 02:22:00,
2013-01-24 21:32:00,10.0,-5.0,30.45,SSE,163,1.0,6.0,50,0.00,,,0.00,,2013-01-25 02:32:00,
2013-01-24 21:42:00,10.0,-5.0,30.45,SSE,163,1.0,6.0,50,0.00,,,0.00,,2013-01-25 02:42:00,
2013-01-24 21:52:00,10.0,-4.0,30.45,SSE,165,0.0,2.0,53,0.00,,,0.00,,2013-01-25 02:52:00,
2013-01-24 22:02:00,9.0,-5.0,30.44,South,186,0.0,3.0,53,0.00,,,0.00,,2013-01-25 03:02:00,
2013-01-24 22:12:00,9.0,-4.0,30.43,SSE,161,0.0,4.0,55,0.00,,,0.00,,2013-01-25 03:12:00,
2013-01-24 22:22:00,9.0,-4.0,30.43,SSE,161,0.0,4.0,55,0.00,,,0.00,,2013-01-25 03:22:00,
2013-01-24 22:33:00,9.0,-4.0,30.42,South,173,0.0,4.0,55,0.00,,,0.00,,2013-01-25 03:33:00,
2013-01-24 22:42:00,9.0,-4.0,30.42,South,173,0.0,4.0,55,0.00,,,0.00,,2013-01-25 03:42:00,
2013-01-24 22:52:00,9.0,-4.0,30.42,South,173,0.0,4.0,55,0.00,,,0.00,,2013-01-25 03:52:00,
2013-01-24 23:02:00,9.0,-3.0,30.40,SE,139,0.0,5.0,57,0.00,,,0.00,,2013-01-25 04:02:00,
2013-01-24 23:12:00,9.0,-3.0,30.40,SE,139,0.0,5.0,57,0.00,,,0.00,,2013-01-25 04:12:00,
2013-01-24 23:22:00,9.0,-3.0,30.40,SSE,167,0.0,8.0,57,0.00,,,0.00,,2013-01-25 04:22:00,
2013-01-24 23:32:00,9.0,-3.0,30.40,South,169,0.0,8.0,57,0.00,,,0.00,,2013-01-25 04:32:00,
2013-01-24 23:42:00,9.0,-3.0,30.40,South,169,0.0,8.0,57,0.00,,,0.00,,2013-01-25 04:42:00,
2013-01-24 23:51:00,9.0,-4.0,30.40,SSE,147,2.0,8.0,55,0.00,,,0.00,,2013-01-25 04:51:00,